Time;durP1;ratioP1;P1;durP2;ratioP2;P2;SDS_P1;SDS_P2;PMS_P1;PMS_P2;Temp;Humidity;BMP_temperature;BMP_pressure;BME280_temperature;BME280_humidity;BME280_pressure;Samples;Min_cycle;Max_cycle;Signal;HPM_P1;HPM_P2
2022/12/08 00:01:19;;;;;;;12.65;2.97;;;3.80;99.90;;;;;;4973199;28;20470;-73
2022/12/08 00:03:45;;;;;;;8.20;2.97;;;3.90;99.90;;;;;;5009568;22;20046;-70
2022/12/08 00:09:39;;;;;;;9.48;5.28;;;3.80;99.90;;;;;;4985771;28;20482;-70
2022/12/08 00:12:08;;;;;;;7.93;4.28;;;3.80;99.90;;;;;;4991277;28;20596;-70
2022/12/08 00:14:37;;;;;;;6.22;2.88;;;3.80;99.90;;;;;;4992482;28;20049;-70
2022/12/08 00:17:04;;;;;;;9.60;3.97;;;3.70;99.90;;;;;;4990266;28;20426;-70
2022/12/08 00:19:31;;;;;;;18.80;3.83;;;3.70;99.90;;;;;;4992187;28;20022;-70
2022/12/08 00:21:57;;;;;;;4.68;2.40;;;3.70;99.90;;;;;;4990397;28;20066;-70
2022/12/08 00:24:32;;;;;;;5.45;2.65;;;3.60;99.90;;;;;;4986172;28;20073;-70
2022/12/08 00:26:57;;;;;;;9.00;3.30;;;3.60;99.90;;;;;;4991292;28;20026;-70
2022/12/08 00:29:23;;;;;;;9.75;3.70;;;3.70;99.90;;;;;;4992100;28;20441;-70
2022/12/08 00:31:49;;;;;;;7.35;3.38;;;3.70;99.90;;;;;;4992618;28;20034;-70
2022/12/08 00:34:15;;;;;;;11.77;3.20;;;3.80;99.90;;;;;;4990275;28;20037;-70
2022/12/08 00:36:42;;;;;;;6.15;3.60;;;3.80;99.90;;;;;;4992734;28;20093;-70
2022/12/08 00:39:09;;;;;;;4.95;3.15;;;3.80;99.90;;;;;;4991224;28;20049;-70
2022/12/08 00:44:19;;;;;;;8.18;3.72;;;3.70;99.90;;;;;;4991593;28;20656;-70
2022/12/08 00:46:46;;;;;;;10.30;4.85;;;3.70;99.90;;;;;;4992192;28;20034;-70
2022/12/08 00:49:12;;;;;;;8.82;3.83;;;3.70;99.90;;;;;;4989591;28;20084;-70
2022/12/08 00:51:38;;;;;;;7.22;3.63;;;3.60;99.90;;;;;;4991784;28;20511;-70
2022/12/08 00:54:06;;;;;;;7.43;3.13;;;3.60;99.90;;;;;;4991153;28;20129;-70
2022/12/08 00:56:32;;;;;;;8.95;4.18;;;3.60;99.90;;;;;;4974413;28;20059;-70
2022/12/08 00:58:59;;;;;;;15.60;2.95;;;3.50;99.90;;;;;;4990569;28;20038;-70
2022/12/08 01:01:25;;;;;;;6.38;3.28;;;3.50;99.90;;;;;;4991821;28;20034;-70
2022/12/08 01:03:51;;;;;;;7.65;3.92;;;3.50;99.90;;;;;;4990597;28;20096;-70
2022/12/08 01:06:17;;;;;;;12.13;4.38;;;3.50;99.90;;;;;;4990410;28;20030;-70
2022/12/08 01:08:43;;;;;;;8.57;3.85;;;3.40;99.90;;;;;;4990894;28;20410;-70
2022/12/08 01:11:13;;;;;;;5.65;3.50;;;3.40;99.90;;;;;;4991530;28;20026;-70
2022/12/08 01:13:39;;;;;;;7.15;4.80;;;3.40;99.90;;;;;;4990661;28;20385;-70
2022/12/08 01:16:06;;;;;;;5.50;3.33;;;3.40;99.90;;;;;;4990486;28;20038;-69
2022/12/08 01:18:32;;;;;;;8.77;5.68;;;3.40;99.90;;;;;;4989285;28;20552;-68
2022/12/08 01:21:06;;;;;;;6.10;4.10;;;3.40;99.90;;;;;;4990071;28;20030;-69
2022/12/08 01:23:33;;;;;;;16.50;3.53;;;3.40;99.90;;;;;;4988739;28;20422;-70
2022/12/08 01:26:04;;;;;;;9.68;4.20;;;3.30;99.90;;;;;;4991281;28;20030;-69
2022/12/08 01:28:31;;;;;;;5.30;3.03;;;3.30;99.90;;;;;;4988917;28;20027;-69
2022/12/08 01:30:58;;;;;;;11.20;4.85;;;3.20;99.90;;;;;;4990463;28;20062;-70
2022/12/08 01:33:25;;;;;;;7.70;3.67;;;3.20;99.90;;;;;;4990097;28;20073;-69
2022/12/08 01:35:52;;;;;;;5.43;3.65;;;3.20;99.90;;;;;;4991632;28;20058;-69
2022/12/08 01:38:18;;;;;;;13.88;6.38;;;3.20;99.90;;;;;;4989986;28;20031;-69
2022/12/08 01:40:44;;;;;;;9.88;4.88;;;3.20;99.90;;;;;;4991362;28;20121;-69
2022/12/08 01:43:19;;;;;;;7.72;3.72;;;3.10;99.90;;;;;;4990087;28;20405;-69
2022/12/08 01:45:46;;;;;;;11.65;4.97;;;3.10;99.90;;;;;;4991562;28;20477;-70
2022/12/08 01:48:20;;;;;;;8.68;5.55;;;3.10;99.90;;;;;;4989319;28;20029;-69
2022/12/08 01:50:48;;;;;;;6.93;4.97;;;3.10;99.90;;;;;;4990249;28;20041;-70
2022/12/08 01:53:21;;;;;;;10.18;4.63;;;3.00;99.90;;;;;;4989024;28;20034;-69
2022/12/08 01:55:54;;;;;;;6.97;3.58;;;3.00;99.90;;;;;;4989840;28;20042;-69
2022/12/08 01:58:34;;;;;;;10.00;4.45;;;3.00;99.90;;;;;;4989231;28;20042;-69
2022/12/08 02:01:01;;;;;;;9.05;4.50;;;2.90;99.90;;;;;;4990885;28;20027;-70
2022/12/08 02:03:34;;;;;;;13.32;5.15;;;3.00;99.90;;;;;;4988406;28;20030;-70
2022/12/08 02:06:02;;;;;;;10.02;5.95;;;3.00;99.90;;;;;;4979218;28;20026;-70
2022/12/08 02:08:29;;;;;;;14.07;4.32;;;3.00;99.90;;;;;;4987330;28;20029;-70
2022/12/08 02:10:55;;;;;;;6.95;4.32;;;3.00;99.90;;;;;;4991294;28;20018;-70
2022/12/08 02:13:23;;;;;;;6.63;4.28;;;2.90;99.90;;;;;;4989887;28;20050;-70
2022/12/08 02:16:15;;;;;;;8.00;4.50;;;2.90;99.90;;;;;;4992287;28;20041;-70
2022/12/08 02:19:32;;;;;;;9.80;4.85;;;2.90;99.90;;;;;;4988527;28;20034;-70
2022/12/08 02:22:05;;;;;;;9.13;4.57;;;2.90;99.90;;;;;;5002394;28;20033;-69
2022/12/08 02:25:10;;;;;;;9.20;5.25;;;2.90;99.90;;;;;;4988886;28;20121;-69
2022/12/08 02:28:15;;;;;;;9.10;3.97;;;2.90;99.90;;;;;;4986536;28;20109;-69
2022/12/08 02:31:31;;;;;;;7.65;3.55;;;2.90;99.90;;;;;;4987213;28;20034;-69
2022/12/08 02:34:25;;;;;;;12.07;5.22;;;2.90;99.90;;;;;;4977491;28;20053;-69
2022/12/08 02:37:25;;;;;;;8.23;3.60;;;2.90;99.90;;;;;;4992967;28;20030;-69
2022/12/08 02:40:10;;;;;;;11.73;4.57;;;2.90;99.90;;;;;;4991895;28;20089;-69
2022/12/08 02:42:52;;;;;;;9.32;5.72;;;2.90;99.90;;;;;;4988543;28;20034;-69
2022/12/08 02:45:37;;;;;;;9.30;5.43;;;2.90;99.90;;;;;;4992266;28;20661;-69
2022/12/08 02:48:04;;;;;;;9.63;5.20;;;2.80;99.90;;;;;;4993728;28;20097;-69
2022/12/08 02:50:30;;;;;;;17.58;3.53;;;2.80;99.90;;;;;;4992594;28;20022;-69
2022/12/08 02:52:56;;;;;;;8.93;4.60;;;2.80;99.90;;;;;;4994143;28;20022;-69
2022/12/08 02:55:36;;;;;;;14.25;5.93;;;2.90;99.90;;;;;;4993342;28;20030;-69
2022/12/08 02:58:34;;;;;;;12.05;5.65;;;2.90;99.90;;;;;;4992711;28;20077;-69
2022/12/08 03:01:33;;;;;;;6.88;3.60;;;2.90;99.90;;;;;;5007884;28;20038;-70
2022/12/08 03:04:12;;;;;;;6.88;4.28;;;2.90;99.90;;;;;;4991495;28;20608;-69
2022/12/08 03:06:40;;;;;;;12.40;5.78;;;2.80;99.90;;;;;;4993854;28;20037;-69
2022/12/08 03:09:16;;;;;;;15.20;4.25;;;2.80;99.90;;;;;;4993223;28;20157;-70
2022/12/08 03:11:57;;;;;;;6.40;3.78;;;2.70;99.90;;;;;;4992695;28;20512;-69
2022/12/08 03:14:24;;;;;;;10.57;5.20;;;2.70;99.90;;;;;;4976634;28;20038;-70
2022/12/08 03:16:55;;;;;;;7.25;3.42;;;2.70;99.90;;;;;;4992617;28;20029;-70
2022/12/08 03:19:32;;;;;;;16.25;3.08;;;2.70;99.90;;;;;;4992522;28;20026;-70
2022/12/08 03:22:03;;;;;;;4.13;2.65;;;2.70;99.90;;;;;;4992346;28;20045;-70
2022/12/08 03:24:35;;;;;;;6.03;3.67;;;2.70;99.90;;;;;;4992591;28;20027;-70
2022/12/08 03:27:23;;;;;;;7.38;3.78;;;2.70;99.90;;;;;;4992159;28;20033;-70
2022/12/08 03:29:53;;;;;;;12.57;5.28;;;2.70;99.90;;;;;;4970621;28;20169;-70
2022/12/08 03:32:52;;;;;;;13.97;5.57;;;2.70;99.90;;;;;;4992391;28;20019;-70
2022/12/08 03:35:28;;;;;;;11.32;5.85;;;2.70;99.90;;;;;;4992656;28;20847;-70
2022/12/08 03:38:09;;;;;;;9.35;4.60;;;2.70;99.90;;;;;;4992050;28;20048;-70
2022/12/08 03:40:35;;;;;;;5.60;3.03;;;2.70;99.90;;;;;;4993616;28;20030;-69
2022/12/08 03:43:07;;;;;;;9.23;3.97;;;2.60;99.90;;;;;;4993190;28;20046;-69
2022/12/08 03:45:33;;;;;;;6.53;4.25;;;2.60;99.90;;;;;;4992997;28;20137;-70
2022/12/08 03:47:58;;;;;;;11.93;4.93;;;2.70;99.90;;;;;;4992703;28;20431;-69
2022/12/08 03:50:24;;;;;;;12.18;5.43;;;2.60;99.90;;;;;;4990399;28;20202;-69
2022/12/08 03:52:50;;;;;;;10.82;3.88;;;2.60;99.90;;;;;;4992656;28;20034;-69
2022/12/08 03:55:16;;;;;;;8.60;5.70;;;2.60;99.90;;;;;;4992089;28;20038;-69
2022/12/08 03:57:42;;;;;;;7.28;3.60;;;2.60;99.90;;;;;;4991606;28;20039;-69
2022/12/08 04:00:14;;;;;;;11.57;4.88;;;2.50;99.90;;;;;;4990851;28;20104;-69
2022/12/08 04:02:40;;;;;;;11.90;5.05;;;2.50;99.90;;;;;;4989258;28;20127;-69
2022/12/08 04:05:06;;;;;;;10.40;5.47;;;2.50;99.90;;;;;;4991260;28;20440;-69
2022/12/08 04:07:32;;;;;;;6.13;4.25;;;2.50;99.90;;;;;;4992499;28;20477;-69
2022/12/08 04:09:57;;;;;;;6.90;3.70;;;2.50;99.90;;;;;;4991091;28;20031;-70
2022/12/08 04:12:23;;;;;;;7.60;4.50;;;2.50;99.90;;;;;;4991038;28;20387;-69
2022/12/08 04:14:49;;;;;;;14.73;6.85;;;2.50;99.90;;;;;;4991828;28;20117;-69
2022/12/08 04:17:14;;;;;;;9.90;5.00;;;2.40;99.90;;;;;;4992549;28;20037;-70
2022/12/08 04:19:40;;;;;;;8.90;4.85;;;2.40;99.90;;;;;;4990840;28;20035;-69
2022/12/08 04:22:06;;;;;;;5.95;5.00;;;2.40;99.90;;;;;;4992256;28;20054;-69
2022/12/08 04:24:32;;;;;;;8.52;5.05;;;2.40;99.90;;;;;;4990792;28;20489;-69
2022/12/08 04:26:58;;;;;;;11.65;4.40;;;2.40;99.90;;;;;;4992540;28;20034;-69
2022/12/08 04:29:23;;;;;;;11.38;4.60;;;2.30;99.90;;;;;;4991465;28;20105;-70
2022/12/08 04:31:49;;;;;;;19.88;6.80;;;2.30;99.90;;;;;;4991994;28;20026;-70
2022/12/08 04:34:15;;;;;;;19.10;5.80;;;2.30;99.90;;;;;;4990797;28;20026;-70
2022/12/08 04:36:40;;;;;;;6.10;4.38;;;2.30;99.90;;;;;;4985873;28;20045;-70
2022/12/08 04:39:06;;;;;;;12.63;5.45;;;2.30;99.90;;;;;;4988815;28;20077;-69
2022/12/08 04:41:32;;;;;;;7.13;4.78;;;2.30;99.90;;;;;;4964473;28;20042;-70
2022/12/08 04:43:58;;;;;;;7.78;4.35;;;2.30;99.90;;;;;;4991727;28;20504;-70
2022/12/08 04:46:23;;;;;;;24.83;6.60;;;2.30;99.90;;;;;;4995036;28;20489;-70
2022/12/08 04:48:49;;;;;;;12.38;5.10;;;2.20;99.90;;;;;;5002387;28;20022;-70
2022/12/08 04:51:19;;;;;;;12.27;6.13;;;2.20;99.90;;;;;;5006997;28;20034;-70
2022/12/08 04:53:46;;;;;;;8.77;4.32;;;2.20;99.90;;;;;;5001688;28;20497;-70
2022/12/08 04:56:18;;;;;;;13.40;6.82;;;2.20;99.90;;;;;;5002214;28;20038;-71
2022/12/08 04:58:44;;;;;;;10.38;3.83;;;2.20;99.90;;;;;;5001936;28;20029;-71
2022/12/08 05:01:10;;;;;;;10.30;4.70;;;2.20;99.90;;;;;;5006621;28;20030;-70
2022/12/08 05:03:36;;;;;;;14.35;5.43;;;2.10;99.90;;;;;;5001063;28;20049;-71
2022/12/08 05:06:02;;;;;;;13.00;4.65;;;2.10;99.90;;;;;;5006233;28;20034;-70
2022/12/08 05:08:28;;;;;;;13.88;5.53;;;2.10;99.90;;;;;;5000905;28;20069;-69
2022/12/08 05:11:05;;;;;;;20.60;6.22;;;2.10;99.90;;;;;;4995813;28;20038;-69
2022/12/08 05:13:31;;;;;;;13.60;4.75;;;2.10;99.90;;;;;;4997186;28;20030;-69
2022/12/08 05:16:05;;;;;;;10.52;4.40;;;2.10;99.90;;;;;;5002416;28;20125;-69
2022/12/08 05:18:31;;;;;;;13.23;4.60;;;2.10;99.90;;;;;;5003131;28;20030;-70
2022/12/08 05:20:57;;;;;;;9.38;5.40;;;2.10;99.90;;;;;;5001485;28;20627;-69
2022/12/08 05:23:23;;;;;;;5.30;3.38;;;2.10;99.90;;;;;;4996134;28;20048;-69
2022/12/08 05:25:48;;;;;;;9.27;4.50;;;2.10;99.90;;;;;;5002534;28;20038;-70
2022/12/08 05:28:14;;;;;;;14.35;5.07;;;2.10;99.90;;;;;;4995654;28;20042;-71
2022/12/08 05:30:40;;;;;;;10.63;4.85;;;2.20;99.90;;;;;;5002448;28;20025;-70
2022/12/08 05:33:05;;;;;;;10.95;4.93;;;2.20;99.90;;;;;;5001908;28;20457;-70
2022/12/08 05:35:31;;;;;;;9.52;5.38;;;2.20;99.90;;;;;;5002422;28;20504;-70
2022/12/08 05:37:57;;;;;;;18.17;5.20;;;2.20;99.90;;;;;;5000066;28;20038;-69
2022/12/08 05:40:22;;;;;;;10.35;4.13;;;2.20;99.90;;;;;;5002356;28;20113;-70
2022/12/08 05:42:48;;;;;;;12.07;4.65;;;2.20;99.90;;;;;;5003518;28;20546;-69
2022/12/08 05:45:14;;;;;;;12.48;5.32;;;2.20;99.90;;;;;;5002625;28;20428;-71
2022/12/08 05:47:39;;;;;;;7.65;5.13;;;2.20;99.90;;;;;;5003632;28;20085;-71
2022/12/08 05:50:06;;;;;;;9.73;5.00;;;2.20;99.90;;;;;;5001415;28;20113;-71
2022/12/08 05:52:32;;;;;;;6.57;4.38;;;2.20;99.90;;;;;;5005028;28;20027;-70
2022/12/08 05:54:57;;;;;;;17.73;6.10;;;2.20;99.90;;;;;;5000838;28;20049;-71
2022/12/08 05:57:23;;;;;;;6.32;4.32;;;2.20;99.90;;;;;;5004405;28;20019;-72
2022/12/08 05:59:49;;;;;;;19.65;6.10;;;2.10;99.90;;;;;;4999301;28;20491;-71
2022/12/08 06:02:14;;;;;;;12.32;5.85;;;2.20;99.90;;;;;;5004510;28;20034;-73
2022/12/08 06:04:40;;;;;;;8.02;5.60;;;2.10;99.90;;;;;;4996418;28;20124;-74
2022/12/08 06:07:08;;;;;;;9.48;4.13;;;2.20;99.90;;;;;;5004319;28;20103;-72
2022/12/08 06:09:33;;;;;;;10.95;4.07;;;2.20;99.90;;;;;;4996843;28;20383;-74
2022/12/08 06:12:00;;;;;;;8.10;5.43;;;2.20;99.90;;;;;;5004555;28;20026;-73
2022/12/08 06:14:26;;;;;;;13.25;6.25;;;2.30;99.90;;;;;;4996870;28;20037;-72
2022/12/08 06:16:52;;;;;;;14.32;4.82;;;2.30;99.90;;;;;;5002483;28;20049;-71
2022/12/08 06:19:18;;;;;;;13.13;4.05;;;2.40;99.90;;;;;;5007740;28;20032;-69
2022/12/08 06:21:44;;;;;;;7.38;3.70;;;2.40;99.90;;;;;;4998922;28;20073;-71
2022/12/08 06:24:10;;;;;;;9.32;5.22;;;2.40;99.90;;;;;;4996926;28;20053;-71
2022/12/08 06:26:36;;;;;;;13.73;4.45;;;2.40;99.90;;;;;;4988401;28;20034;-71
2022/12/08 06:29:03;;;;;;;9.55;4.03;;;2.40;99.90;;;;;;5003279;28;20190;-70
2022/12/08 06:31:29;;;;;;;6.30;4.35;;;2.50;99.90;;;;;;5009127;28;20081;-71
2022/12/08 06:33:55;;;;;;;7.70;4.78;;;2.60;99.90;;;;;;5003268;28;20034;-71
2022/12/08 06:36:24;;;;;;;7.15;3.22;;;2.60;99.90;;;;;;5007292;23;20042;-73
2022/12/08 06:38:51;;;;;;;7.45;4.38;;;2.60;99.90;;;;;;5006520;28;20029;-72
2022/12/08 06:41:17;;;;;;;6.40;3.22;;;2.70;99.90;;;;;;5015254;28;20401;-73
2022/12/08 06:43:43;;;;;;;8.73;3.80;;;2.70;99.90;;;;;;5004860;28;20034;-72
2022/12/08 06:46:14;;;;;;;10.90;6.18;;;2.70;99.90;;;;;;5005141;28;20018;-60
2022/12/08 06:48:40;;;;;;;9.85;4.07;;;2.70;99.90;;;;;;5003624;28;20021;-71
2022/12/08 06:51:14;;;;;;;8.73;5.10;;;2.80;99.90;;;;;;5005545;28;20624;-72
2022/12/08 06:53:42;;;;;;;8.90;5.03;;;2.80;99.90;;;;;;5003130;28;20056;-72
2022/12/08 06:56:08;;;;;;;9.63;4.43;;;2.80;99.90;;;;;;5004356;28;20038;-71
2022/12/08 06:58:35;;;;;;;8.05;4.03;;;2.80;99.90;;;;;;5003516;28;20109;-71
2022/12/08 07:01:09;;;;;;;7.15;4.57;;;2.90;99.90;;;;;;5001289;28;20034;-72
2022/12/08 07:03:37;;;;;;;11.13;3.95;;;2.90;99.90;;;;;;4999717;28;20081;-73
2022/12/08 07:06:03;;;;;;;8.20;3.55;;;2.90;99.90;;;;;;4992932;28;20581;-72
2022/12/08 07:08:30;;;;;;;11.68;4.50;;;2.90;99.90;;;;;;5001781;28;20026;-71
2022/12/08 07:10:56;;;;;;;14.88;6.65;;;2.80;99.90;;;;;;4992214;28;20034;-71
2022/12/08 07:13:22;;;;;;;12.20;4.22;;;2.80;99.90;;;;;;5003245;28;20037;-71
2022/12/08 07:15:48;;;;;;;11.07;3.38;;;2.80;99.90;;;;;;5003795;28;20544;-71
2022/12/08 07:18:13;;;;;;;8.07;4.97;;;2.70;99.90;;;;;;5004106;28;20022;-71
2022/12/08 07:20:39;;;;;;;7.63;3.60;;;2.70;99.90;;;;;;5005158;28;20034;-70
2022/12/08 07:23:07;;;;;;;9.68;5.22;;;2.70;99.90;;;;;;5002038;28;20043;-71
2022/12/08 07:25:33;;;;;;;5.85;3.45;;;2.70;99.90;;;;;;5006412;28;20113;-71
2022/12/08 07:27:59;;;;;;;8.23;4.60;;;2.70;99.90;;;;;;5002998;28;20125;-72
2022/12/08 07:30:24;;;;;;;6.22;3.92;;;2.70;99.90;;;;;;5007243;28;20030;-72
2022/12/08 07:32:50;;;;;;;10.73;3.33;;;2.70;99.90;;;;;;5001795;28;20168;-71
2022/12/08 07:35:16;;;;;;;9.23;3.95;;;2.70;99.90;;;;;;5008540;28;20121;-72
2022/12/08 07:37:42;;;;;;;16.15;4.93;;;2.70;99.90;;;;;;5005835;28;20367;-71
2022/12/08 07:40:08;;;;;;;8.50;3.78;;;2.70;99.90;;;;;;4991166;28;20065;-71
2022/12/08 07:42:34;;;;;;;7.20;3.47;;;2.70;99.90;;;;;;5000825;28;20038;-71
2022/12/08 07:45:01;;;;;;;11.27;4.05;;;2.70;99.90;;;;;;5009376;28;20037;-71
2022/12/08 07:47:26;;;;;;;6.57;3.55;;;2.70;99.90;;;;;;4995029;28;20438;-72
2022/12/08 07:49:52;;;;;;;6.07;3.13;;;2.80;99.90;;;;;;4994575;28;20026;-71
2022/12/08 07:52:18;;;;;;;10.75;3.08;;;2.80;99.90;;;;;;4999708;28;20054;-71
2022/12/08 07:54:43;;;;;;;5.53;3.65;;;2.90;99.90;;;;;;5008842;28;20452;-71
2022/12/08 07:57:09;;;;;;;11.90;3.92;;;2.90;99.90;;;;;;5000507;28;20081;-71
2022/12/08 07:59:35;;;;;;;4.57;2.90;;;3.00;99.90;;;;;;5007211;28;20030;-71
2022/12/08 08:02:00;;;;;;;9.60;4.30;;;3.00;99.90;;;;;;5001890;28;20061;-71
2022/12/08 08:04:26;;;;;;;7.28;3.80;;;3.00;99.90;;;;;;5006197;28;20036;-71
2022/12/08 08:06:52;;;;;;;4.78;2.78;;;3.10;99.90;;;;;;5002212;28;20038;-70
2022/12/08 08:09:17;;;;;;;7.32;3.60;;;3.10;99.90;;;;;;4998836;28;20041;-71
2022/12/08 08:11:43;;;;;;;10.43;3.67;;;3.20;99.90;;;;;;4999537;28;20038;-70
2022/12/08 08:14:09;;;;;;;5.55;2.45;;;3.30;99.90;;;;;;5002282;28;20037;-70
2022/12/08 08:16:34;;;;;;;14.65;3.47;;;3.30;99.90;;;;;;5003236;28;20033;-70
2022/12/08 08:19:00;;;;;;;10.35;3.15;;;3.30;99.90;;;;;;5003187;28;20029;-70
2022/12/08 08:21:26;;;;;;;5.93;2.83;;;3.40;99.90;;;;;;5003852;28;20026;-70
2022/12/08 08:23:52;;;;;;;6.50;3.20;;;3.40;99.90;;;;;;5003350;28;20573;-71
2022/12/08 08:26:18;;;;;;;5.05;3.08;;;3.40;99.90;;;;;;5003240;28;20029;-72
2022/12/08 08:28:44;;;;;;;9.77;4.97;;;3.40;99.90;;;;;;5002490;28;20367;-71
2022/12/08 08:31:11;;;;;;;4.85;2.97;;;3.30;99.90;;;;;;4998296;28;20461;-71
2022/12/08 08:33:37;;;;;;;10.00;4.57;;;3.40;99.90;;;;;;4999814;28;20907;-72
2022/12/08 08:36:11;;;;;;;7.70;2.88;;;3.40;99.90;;;;;;4992155;28;20120;-74
2022/12/08 08:38:38;;;;;;;9.23;4.97;;;3.50;99.90;;;;;;5001554;28;20066;-73
2022/12/08 08:41:10;;;;;;;6.45;4.22;;;3.50;99.90;;;;;;4993385;28;20552;-74
2022/12/08 08:43:36;;;;;;;9.95;3.38;;;3.50;99.90;;;;;;5002692;28;20034;-75
2022/12/08 08:46:04;;;;;;;5.88;3.13;;;3.50;99.90;;;;;;5003138;28;20038;-73
2022/12/08 08:48:31;;;;;;;6.93;4.00;;;3.50;99.90;;;;;;4996669;28;20393;-73
2022/12/08 08:50:58;;;;;;;9.23;4.47;;;3.60;99.90;;;;;;5003048;28;20450;-73
2022/12/08 08:53:24;;;;;;;6.78;4.40;;;3.70;99.90;;;;;;5000891;28;20018;-73
2022/12/08 08:55:50;;;;;;;5.63;3.60;;;3.60;99.90;;;;;;5003375;28;20058;-74
2022/12/08 08:58:17;;;;;;;6.35;3.35;;;3.60;99.90;;;;;;5002249;28;20054;-74
2022/12/08 09:00:43;;;;;;;11.85;4.03;;;3.70;99.90;;;;;;5002406;28;20084;-73
2022/12/08 09:03:09;;;;;;;6.85;3.30;;;3.70;99.90;;;;;;4981704;28;20141;-73
2022/12/08 09:05:39;;;;;;;10.48;3.80;;;3.60;99.90;;;;;;4990220;28;20117;-74
2022/12/08 09:08:05;;;;;;;6.57;3.63;;;3.70;99.90;;;;;;5003841;28;20034;-73
2022/12/08 09:10:30;;;;;;;8.93;4.78;;;3.80;99.90;;;;;;4990132;28;20045;-74
2022/12/08 09:12:56;;;;;;;14.07;3.78;;;3.80;99.90;;;;;;5000674;28;20053;-73
2022/12/08 09:15:22;;;;;;;12.02;3.42;;;3.90;99.90;;;;;;5006074;28;20030;-73
2022/12/08 09:17:48;;;;;;;14.32;3.42;;;4.00;99.90;;;;;;4998332;28;20045;-73
2022/12/08 09:20:13;;;;;;;6.00;3.22;;;4.00;99.90;;;;;;5007224;28;20605;-73
2022/12/08 09:22:39;;;;;;;10.68;4.75;;;4.10;99.90;;;;;;4999177;28;20030;-73
2022/12/08 09:25:05;;;;;;;9.90;4.65;;;4.10;99.90;;;;;;5007420;28;20394;-73
2022/12/08 09:27:31;;;;;;;4.95;2.78;;;4.00;99.90;;;;;;4999029;28;20102;-73
2022/12/08 09:29:56;;;;;;;10.00;4.53;;;4.10;99.90;;;;;;5007682;28;20022;-73
2022/12/08 09:32:22;;;;;;;10.45;4.45;;;4.20;99.90;;;;;;4999099;28;20049;-74
2022/12/08 09:34:48;;;;;;;13.13;5.65;;;4.20;99.90;;;;;;5007504;28;20080;-75
2022/12/08 09:37:13;;;;;;;7.03;2.50;;;4.00;99.90;;;;;;5000601;28;20034;-73
2022/12/08 09:39:39;;;;;;;6.10;3.50;;;4.00;99.90;;;;;;4993111;28;20037;-73
2022/12/08 09:42:05;;;;;;;12.35;4.72;;;4.10;99.90;;;;;;4997753;28;20418;-73
2022/12/08 09:45:11;;;;;;;8.77;2.95;;;4.10;99.90;;;;;;5003800;28;20516;-73
2022/12/08 09:47:53;;;;;;;14.07;4.25;;;4.20;99.90;;;;;;4996218;28;20986;-74
2022/12/08 09:50:51;;;;;;;15.73;4.85;;;4.20;99.90;;;;;;4993898;28;20066;-73
2022/12/08 09:53:23;;;;;;;9.85;3.80;;;4.40;99.90;;;;;;4987793;28;20784;-72
2022/12/08 09:55:57;;;;;;;18.98;4.15;;;4.50;99.90;;;;;;4989072;28;20550;-74
2022/12/08 09:58:55;;;;;;;11.55;6.03;;;4.70;99.90;;;;;;4998059;28;20029;-73
2022/12/08 10:01:26;;;;;;;12.57;4.30;;;4.80;99.90;;;;;;4984222;28;20050;-74
2022/12/08 10:03:54;;;;;;;8.52;4.18;;;4.90;99.90;;;;;;5000612;28;20034;-74
2022/12/08 10:07:15;;;;;;;8.30;3.88;;;4.90;99.90;;;;;;4988665;28;20037;-72
2022/12/08 10:10:08;;;;;;;8.15;3.80;;;5.00;99.90;;;;;;5002028;28;20038;-74
2022/12/08 10:13:02;;;;;;;5.63;3.50;;;5.70;99.90;;;;;;4993802;28;20088;-73
2022/12/08 10:15:38;;;;;;;7.32;4.45;;;5.60;99.90;;;;;;4973455;28;20610;-73
2022/12/08 10:18:26;;;;;;;5.68;2.95;;;5.30;99.90;;;;;;5001085;28;20087;-73
2022/12/08 10:20:53;;;;;;;7.25;3.33;;;5.60;99.90;;;;;;5001758;28;20375;-73
2022/12/08 10:23:32;;;;;;;8.05;4.00;;;5.80;99.90;;;;;;4984767;28;20029;-73
2022/12/08 10:26:05;;;;;;;7.38;3.75;;;5.90;99.90;;;;;;5001468;28;20046;-74
2022/12/08 10:28:33;;;;;;;6.00;2.95;;;6.00;99.90;;;;;;5001592;28;20052;-74
2022/12/08 10:30:58;;;;;;;8.45;3.42;;;5.90;99.90;;;;;;5001750;28;20034;-75
2022/12/08 10:33:25;;;;;;;13.07;3.65;;;5.60;99.90;;;;;;5000465;28;20091;-73
2022/12/08 10:35:57;;;;;;;7.47;2.88;;;5.80;99.90;;;;;;5001627;28;20034;-72
2022/12/08 10:38:36;;;;;;;8.18;2.78;;;5.90;99.90;;;;;;5001960;28;20031;-73
2022/12/08 10:41:08;;;;;;;7.15;3.22;;;5.90;99.90;;;;;;4999859;28;20041;-74
2022/12/08 10:43:57;;;;;;;5.72;2.42;;;5.80;99.90;;;;;;5001565;28;20145;-74
2022/12/08 10:46:26;;;;;;;7.75;3.38;;;6.00;99.90;;;;;;5001545;28;20034;-73
2022/12/08 10:49:03;;;;;;;5.32;3.33;;;5.90;99.90;;;;;;4992230;28;20035;-73
2022/12/08 10:51:39;;;;;;;9.00;4.00;;;5.40;99.90;;;;;;4995327;28;20436;-73
2022/12/08 10:54:40;;;;;;;9.18;2.97;;;5.10;99.90;;;;;;5001350;28;20066;-73
2022/12/08 10:57:21;;;;;;;5.90;3.05;;;5.30;99.90;;;;;;4999411;28;20050;-74
2022/12/08 10:59:46;;;;;;;3.97;2.28;;;5.10;99.90;;;;;;5009910;28;20401;-73
2022/12/08 11:02:19;;;;;;;8.35;2.90;;;5.30;99.90;;;;;;5001551;28;20034;-72
2022/12/08 11:04:45;;;;;;;6.93;2.88;;;5.40;99.90;;;;;;5008364;28;20490;-73
2022/12/08 11:07:20;;;;;;;4.35;2.58;;;5.40;99.90;;;;;;5002614;28;20033;-73
2022/12/08 11:09:51;;;;;;;5.40;2.33;;;5.60;99.90;;;;;;4978944;28;20490;-75
2022/12/08 11:12:20;;;;;;;6.60;2.63;;;5.60;99.90;;;;;;4982979;28;20038;-74
2022/12/08 11:14:49;;;;;;;9.05;3.50;;;5.60;99.90;;;;;;5008465;28;20087;-73
2022/12/08 11:17:21;;;;;;;6.72;4.03;;;5.30;99.90;;;;;;5000146;28;20121;-73
2022/12/08 11:20:21;;;;;;;10.52;3.38;;;5.30;99.90;;;;;;5009337;28;20124;-72
2022/12/08 11:22:55;;;;;;;7.32;2.55;;;5.10;99.90;;;;;;4998766;28;20053;-71
2022/12/08 11:25:24;;;;;;;9.45;3.40;;;5.20;99.90;;;;;;5006785;28;20034;-72
2022/12/08 11:27:58;;;;;;;6.70;2.65;;;5.20;99.90;;;;;;5000728;28;20076;-74
2022/12/08 11:30:29;;;;;;;14.90;3.30;;;5.30;99.90;;;;;;5003574;28;20034;-72
2022/12/08 11:33:05;;;;;;;5.43;2.85;;;5.30;99.90;;;;;;4975345;28;20027;-72
2022/12/08 11:35:40;;;;;;;3.67;2.17;;;5.20;99.90;;;;;;5005122;28;20026;-72
2022/12/08 11:38:20;;;;;;;6.95;2.95;;;5.30;99.90;;;;;;5007061;28;20080;-74
2022/12/08 11:40:51;;;;;;;7.05;2.65;;;5.20;99.90;;;;;;4991589;28;20026;-74
2022/12/08 11:43:32;;;;;;;17.05;3.53;;;5.20;99.90;;;;;;4996596;28;20100;-74
2022/12/08 11:46:19;;;;;;;4.10;2.35;;;5.30;99.90;;;;;;5002678;28;20100;-74
2022/12/08 11:49:04;;;;;;;7.53;3.28;;;5.40;99.90;;;;;;5004310;28;20584;-74
2022/12/08 11:51:52;;;;;;;5.88;3.00;;;5.30;99.90;;;;;;5004240;28;20058;-76
2022/12/08 11:54:27;;;;;;;6.82;3.53;;;5.10;99.90;;;;;;5004796;28;20414;-74
2022/12/08 11:56:57;;;;;;;8.07;3.45;;;5.20;99.90;;;;;;5002576;28;20034;-76
2022/12/08 11:59:48;;;;;;;11.70;3.33;;;5.30;99.90;;;;;;5004013;28;20030;-76
2022/12/08 12:02:24;;;;;;;6.95;2.42;;;5.30;99.90;;;;;;5003644;28;20030;-74
2022/12/08 12:05:02;;;;;;;8.65;3.65;;;5.10;99.90;;;;;;5003179;28;20036;-76
2022/12/08 12:08:35;;;;;;;8.30;4.15;;;5.10;99.90;;;;;;4998410;28;20053;-74
2022/12/08 12:14:30;;;;;;;4.32;2.38;;;5.20;99.90;;;;;;4986743;28;20042;-73
2022/12/08 12:17:07;;;;;;;6.25;3.90;;;5.20;99.90;;;;;;5002341;28;20109;-73
2022/12/08 12:19:38;;;;;;;9.20;3.60;;;5.30;99.90;;;;;;4987218;28;20036;-72
2022/12/08 12:22:16;;;;;;;7.38;3.63;;;5.10;99.90;;;;;;5003440;28;20561;-73
2022/12/08 12:24:46;;;;;;;9.48;3.67;;;5.10;99.90;;;;;;5003197;28;20050;-76
2022/12/08 12:27:14;;;;;;;8.20;3.17;;;5.10;99.90;;;;;;5003842;28;20254;-71
2022/12/08 12:29:53;;;;;;;5.97;2.95;;;5.20;99.90;;;;;;5003787;28;20509;-73
2022/12/08 12:32:20;;;;;;;4.80;2.65;;;5.30;99.90;;;;;;4997178;28;20030;-76
2022/12/08 12:34:55;;;;;;;9.10;4.40;;;5.40;99.90;;;;;;5004661;28;20070;-74
2022/12/08 12:37:43;;;;;;;5.97;3.03;;;5.40;99.90;;;;;;5020130;23;20133;-70
2022/12/08 12:40:21;;;;;;;7.82;3.40;;;5.40;99.90;;;;;;4990890;28;20113;-69
2022/12/08 12:43:11;;;;;;;12.80;4.25;;;5.50;99.90;;;;;;4996788;28;20033;-70
2022/12/08 12:45:42;;;;;;;7.35;3.15;;;5.50;99.90;;;;;;5006905;28;20031;-70
2022/12/08 12:48:08;;;;;;;15.50;3.38;;;5.50;99.90;;;;;;5001751;28;20362;-69
2022/12/08 12:50:33;;;;;;;6.63;3.45;;;5.70;99.90;;;;;;5007179;28;20053;-70
2022/12/08 12:53:25;;;;;;;4.20;2.55;;;5.70;99.90;;;;;;5001508;28;20037;-70
2022/12/08 12:55:55;;;;;;;10.93;3.20;;;5.80;99.90;;;;;;5005333;28;20069;-69
2022/12/08 12:58:27;;;;;;;6.43;3.87;;;5.90;99.90;;;;;;5002554;28;20022;-70
2022/12/08 13:01:13;;;;;;;4.40;2.53;;;6.00;99.90;;;;;;5005517;28;20416;-69
2022/12/08 13:04:02;;;;;;;4.45;2.50;;;6.20;99.90;;;;;;5003034;28;20033;-69
2022/12/08 13:06:43;;;;;;;5.88;2.67;;;6.30;99.90;;;;;;5004528;28;20036;-69
2022/12/08 13:09:20;;;;;;;7.83;3.50;;;6.30;99.90;;;;;;4990062;28;20065;-68
2022/12/08 13:11:52;;;;;;;5.80;2.95;;;5.90;99.90;;;;;;4997287;28;20045;-69
2022/12/08 13:14:45;;;;;;;17.02;3.25;;;5.80;99.90;;;;;;5004024;28;20034;-69
2022/12/08 13:17:15;;;;;;;3.60;2.50;;;6.00;99.90;;;;;;5000903;28;20549;-70
2022/12/08 13:19:42;;;;;;;6.95;2.40;;;6.10;99.90;;;;;;5006480;28;20030;-69
2022/12/08 13:22:47;;;;;;;4.65;2.78;;;5.90;99.90;;;;;;5001945;28;20034;-69
2022/12/08 13:25:43;;;;;;;5.07;2.45;;;5.80;99.90;;;;;;4996355;28;20033;-69